ADDS METAR Data INFO
IDs: Format: Raw Decoded Include TAF

Data at: 1528 UTC 18 Jun 2018

KIPL 181453Z AUTO 35006KT 10SM CLR 22/06 A2985 RMK AO2 SLP109 T02220056 53018
KIPL 181353Z AUTO 00000KT 10SM CLR 19/06 A2983 RMK AO2 SLP102 T01890061
KIPL 181253Z AUTO 00000KT 10SM CLR 16/04 A2982 RMK AO2 SLP097 T01610044
KIPL 181153Z AUTO 34005KT 10SM CLR 18/05 A2980 RMK AO2 SLP091 T01830050 10228 20183 53009
KIPL 181053Z AUTO 34003KT 10SM CLR 20/04 A2979 RMK AO2 SLP089 T02000039
KIPL 180953Z AUTO 33006KT 10SM CLR 20/06 A2978 RMK AO2 SLP084 T02000056
KIPL 180853Z AUTO 29007KT 10SM CLR 21/06 A2977 RMK AO2 SLP082 T02060056 53005
KIPL 180753Z AUTO 27015KT 10SM CLR 22/06 A2976 RMK AO2 SLP080 T02220061 403390183
KIPL 180653Z AUTO 27013KT 10SM CLR 23/06 A2976 RMK AO2 SLP078 T02280061
KIPL 180553Z AUTO 27012KT 10SM CLR 22/07 A2976 RMK AO2 SLP077 T02220067 10322 20222 51010
KIPL 180453Z AUTO 26015G22KT 10SM CLR 23/07 A2975 RMK AO2 SLP075 T02330072
KIPL 180353Z AUTO 26015G23KT 10SM CLR 24/07 A2974 RMK AO2 PK WND 27028/0316 SLP071 T02390072
KIPL 180253Z AUTO 26019G27KT 10SM CLR 26/06 A2973 RMK AO2 PK WND 27030/0158 SLP066 T02610061 53006
KIPL 180153Z AUTO 26022G33KT 5SM HZ CLR 28/06 A2971 RMK AO2 PK WND 26034/0138 SLP062 T02780056
KIPL 180053Z AUTO 27021G31KT 10SM CLR 31/03 A2970 RMK AO2 PK WND 26031/0043 SLP058 T03060033
KIPL 172353Z AUTO 26023G30KT 9SM CLR 32/03 A2971 RMK AO2 PK WND 25031/2319 SLP060 T03220028 10339 20283 56009
KIPL 172253Z AUTO 27022G30KT 6SM HZ CLR 33/03 A2971 RMK AO2 PK WND 26031/2240 SLP063 T03280033
KIPL 172153Z AUTO 26020G25KT 10SM CLR 33/04 A2972 RMK AO2 SLP065 T03330044
KIPL 172053Z AUTO 27010G19KT 240V320 10SM CLR 33/07 A2973 RMK AO2 SLP070 T03280067 58009
KIPL 171953Z AUTO 30005G14KT 10SM CLR 32/06 A2975 RMK AO2 SLP073 T03170061
KIPL 171853Z AUTO 31005KT 10SM CLR 30/07 A2976 RMK AO2 SLP078 T03000067
KIPL 171753Z AUTO 9SM CLR 28/06 A2976 RMK AO2 SLP079 T02830061 10289 20183 50002
KIPL 171653Z AUTO 32010KT 10SM CLR 28/06 A2977 RMK AO2 SLP081 T02780061
KIPL 171553Z AUTO 28011KT 10SM CLR 26/07 A2976 RMK AO2 SLP080 T02610072
KIPL 171453Z AUTO 26009KT 10SM CLR 24/08 A2976 RMK AO2 SLP077 T02390083 53018
KIPL 171353Z AUTO 27008KT 10SM CLR 21/09 A2973 RMK AO2 SLP069 T02060089
KIPL 171253Z AUTO 26009KT 10SM CLR 18/08 A2972 RMK AO2 SLP064 T01830083
KIPL 171153Z AUTO 28009KT 10SM CLR 19/08 A2971 RMK AO2 SLP060 T01890078 10233 20183 51016
KIPL 171053Z AUTO 27011KT 10SM CLR 19/07 A2969 RMK AO2 SLP056 T01940072
KIPL 170953Z AUTO 26004KT 10SM CLR 19/06 A2967 RMK AO2 SLP049 T01940061
KIPL 170853Z AUTO 27009KT 10SM CLR 21/06 A2966 RMK AO2 SLP044 T02110061 51008
KIPL 170753Z AUTO 26015KT 10SM CLR 22/06 A2966 RMK AO2 SLP043 T02170056 403560217
KIPL 170653Z AUTO 28013KT 10SM CLR 23/05 A2964 RMK AO2 SLP039 T02280050
KIPL 170553Z AUTO 28015G25KT 10SM CLR 24/04 A2964 RMK AO2 SLP037 T02390044 10350 20233 50013
KIPL 170453Z AUTO 27017G24KT 10SM CLR 24/06 A2965 RMK AO2 SLP039 T02390056
KIPL 170353Z AUTO 28015KT 10SM CLR 25/08 A2961 RMK AO2 SLP027 T02500078